createdAt,value
2019-03-19T00:00:17.170Z,100.00
2019-03-19T00:02:45.865Z,100.00
2019-03-19T00:05:14.278Z,100.00
2019-03-19T00:07:42.944Z,100.00
2019-03-19T00:10:11.601Z,100.00
2019-03-19T00:12:40.222Z,100.00
2019-03-19T00:15:10.711Z,100.00
2019-03-19T00:17:39.318Z,100.00
2019-03-19T00:20:13.443Z,100.00
2019-03-19T00:22:42.338Z,100.00
2019-03-19T00:25:10.923Z,100.00
2019-03-19T00:27:39.347Z,100.00
2019-03-19T00:30:14.469Z,100.00
2019-03-19T00:32:45.495Z,100.00
2019-03-19T00:35:14.413Z,100.00
2019-03-19T00:37:43.107Z,100.00
2019-03-19T00:40:13.374Z,100.00
2019-03-19T00:42:41.721Z,100.00
2019-03-19T00:45:14.941Z,100.00
2019-03-19T00:47:43.628Z,100.00
2019-03-19T00:50:16.115Z,100.00
2019-03-19T00:52:46.003Z,100.00
2019-03-19T00:55:15.072Z,100.00
2019-03-19T00:57:46.418Z,100.00
2019-03-19T01:00:17.385Z,100.00
2019-03-19T01:02:46.099Z,100.00
2019-03-19T01:05:15.158Z,100.00
2019-03-19T01:07:43.711Z,100.00
2019-03-19T01:10:14.040Z,100.00
2019-03-19T01:12:42.990Z,100.00
2019-03-19T01:15:12.663Z,100.00
2019-03-19T01:17:41.080Z,100.00
2019-03-19T01:20:15.241Z,100.00
2019-03-19T01:22:44.060Z,100.00
2019-03-19T01:25:12.783Z,100.00
2019-03-19T01:27:41.276Z,100.00
2019-03-19T01:30:12.375Z,100.00
2019-03-19T01:32:40.787Z,100.00
2019-03-19T01:35:09.232Z,100.00
2019-03-19T01:37:38.560Z,100.00
2019-03-19T01:40:13.062Z,100.00
2019-03-19T01:42:41.742Z,100.00
2019-03-19T01:45:12.259Z,100.00
2019-03-19T01:47:41.165Z,100.00
2019-03-19T01:50:16.090Z,100.00
2019-03-19T01:52:44.836Z,100.00
2019-03-19T01:55:14.666Z,100.00
2019-03-19T01:57:43.716Z,100.00
2019-03-19T02:00:13.694Z,100.00
2019-03-19T02:02:42.143Z,100.00
2019-03-19T02:05:12.716Z,100.00
2019-03-19T02:07:41.204Z,100.00
2019-03-19T02:10:14.224Z,100.00
2019-03-19T02:12:42.737Z,100.00
2019-03-19T02:15:18.052Z,100.00
2019-03-19T02:17:46.692Z,100.00
2019-03-19T02:20:16.422Z,100.00
2019-03-19T02:22:45.401Z,100.00
2019-03-19T02:25:14.496Z,100.00
2019-03-19T02:27:43.025Z,100.00
2019-03-19T02:30:15.250Z,100.00
2019-03-19T02:32:44.078Z,100.00
2019-03-19T02:35:13.241Z,100.00
2019-03-19T02:37:41.943Z,100.00
2019-03-19T02:40:11.994Z,100.00
2019-03-19T02:42:40.379Z,100.00
2019-03-19T02:45:11.518Z,100.00
2019-03-19T02:47:39.901Z,100.00
2019-03-19T02:50:13.523Z,100.00
2019-03-19T02:52:43.607Z,100.00
2019-03-19T02:55:12.100Z,100.00
2019-03-19T02:57:40.576Z,100.00
2019-03-19T03:00:17.024Z,100.00
2019-03-19T03:02:45.539Z,100.00
2019-03-19T03:05:18.168Z,100.00
2019-03-19T03:07:46.624Z,100.00
2019-03-19T03:10:15.096Z,100.00
2019-03-19T03:12:43.546Z,100.00
2019-03-19T03:15:13.137Z,100.00
2019-03-19T03:17:41.584Z,100.00
2019-03-19T03:20:11.967Z,100.00
2019-03-19T03:22:40.434Z,100.00
2019-03-19T03:25:11.150Z,100.00
2019-03-19T03:27:39.615Z,100.00
2019-03-19T03:30:14.089Z,100.00
2019-03-19T03:32:42.586Z,100.00
2019-03-19T03:35:11.650Z,100.00
2019-03-19T03:37:40.102Z,100.00
2019-03-19T03:40:13.645Z,100.00
2019-03-19T03:42:43.215Z,100.00
2019-03-19T03:45:13.442Z,100.00
2019-03-19T03:47:41.887Z,100.00
2019-03-19T03:50:12.565Z,100.00
2019-03-19T03:52:40.946Z,100.00
2019-03-19T03:55:11.596Z,100.00
2019-03-19T03:57:40.028Z,100.00
2019-03-19T04:00:17.537Z,100.00
2019-03-19T04:02:45.952Z,100.00
2019-03-19T04:05:14.569Z,100.00
2019-03-19T04:07:42.981Z,100.00
2019-03-19T04:10:17.966Z,100.00
2019-03-19T04:12:46.376Z,100.00
2019-03-19T04:15:18.579Z,100.00
2019-03-19T04:17:46.991Z,100.00
2019-03-19T04:20:17.277Z,100.00
2019-03-19T04:22:45.752Z,100.00
2019-03-19T04:25:14.736Z,100.00
2019-03-19T04:27:43.149Z,100.00
2019-03-19T04:30:13.572Z,100.00
2019-03-19T04:32:41.932Z,100.00
2019-03-19T04:35:10.380Z,100.00
2019-03-19T04:37:38.717Z,100.00
2019-03-19T04:40:14.206Z,100.00
2019-03-19T04:42:42.893Z,100.00
2019-03-19T04:45:13.379Z,100.00
2019-03-19T04:47:43.024Z,100.00
2019-03-19T04:50:13.707Z,100.00
2019-03-19T04:52:42.155Z,100.00
2019-03-19T04:55:14.604Z,100.00
2019-03-19T04:57:43.095Z,100.00
2019-03-19T05:00:19.284Z,100.00
2019-03-19T05:02:47.690Z,100.00
2019-03-19T05:05:16.143Z,100.00
2019-03-19T05:07:44.485Z,100.00
2019-03-19T05:10:17.920Z,100.00
2019-03-19T05:12:46.344Z,100.00
2019-03-19T05:15:14.787Z,100.00
2019-03-19T05:17:43.347Z,100.00
2019-03-19T05:20:17.098Z,100.00
2019-03-19T05:22:45.450Z,100.00
2019-03-19T05:25:15.372Z,100.00
2019-03-19T05:27:43.785Z,100.00
2019-03-19T05:30:17.248Z,100.00
2019-03-19T05:32:45.689Z,100.00
2019-03-19T05:35:14.061Z,100.00
2019-03-19T05:37:42.510Z,100.00
2019-03-19T05:40:15.682Z,100.00
2019-03-19T05:42:44.146Z,100.00
2019-03-19T05:45:15.928Z,100.00
2019-03-19T05:47:44.544Z,100.00
2019-03-19T05:50:23.420Z,100.00
2019-03-19T05:52:51.771Z,100.00
2019-03-19T05:55:20.182Z,100.00
2019-03-19T05:57:50.239Z,100.00
2019-03-19T06:00:26.708Z,100.00
2019-03-19T06:02:55.254Z,100.00
2019-03-19T06:05:23.599Z,100.00
2019-03-19T06:07:51.972Z,100.00
2019-03-19T06:10:20.396Z,100.00
2019-03-19T06:12:48.773Z,100.00
2019-03-19T06:15:17.386Z,100.00
2019-03-19T06:17:45.836Z,100.00
2019-03-19T06:20:18.271Z,100.00
2019-03-19T06:22:46.764Z,100.00
2019-03-19T06:25:15.276Z,100.00
2019-03-19T06:27:43.778Z,100.00
2019-03-19T06:30:20.435Z,100.00
2019-03-19T06:32:48.822Z,100.00
2019-03-19T06:35:17.454Z,100.00
2019-03-19T06:37:46.467Z,100.00
2019-03-19T06:40:16.075Z,100.00
2019-03-19T06:42:44.526Z,100.00
2019-03-19T06:45:14.621Z,100.00
2019-03-19T06:47:43.079Z,100.00
2019-03-19T06:50:13.778Z,100.00
2019-03-19T06:52:42.165Z,100.00
2019-03-19T06:55:12.266Z,100.00
2019-03-19T06:57:40.829Z,100.00
2019-03-19T07:00:15.162Z,100.00
2019-03-19T07:02:43.591Z,100.00
2019-03-19T07:05:12.090Z,100.00
2019-03-19T07:07:40.476Z,100.00
2019-03-19T07:10:14.084Z,100.00
2019-03-19T07:12:42.465Z,100.00
2019-03-19T07:15:16.754Z,100.00
2019-03-19T07:17:45.209Z,100.00
2019-03-19T07:20:16.243Z,100.00
2019-03-19T07:22:44.708Z,100.00
2019-03-19T07:25:13.113Z,100.00
2019-03-19T07:27:41.738Z,100.00
2019-03-19T07:30:13.501Z,100.00
2019-03-19T07:32:42.018Z,100.00
2019-03-19T07:35:10.432Z,100.00
2019-03-19T07:37:38.828Z,100.00
2019-03-19T07:40:09.986Z,100.00
2019-03-19T07:42:38.345Z,100.00
2019-03-19T07:45:14.445Z,100.00
2019-03-19T07:47:42.864Z,100.00
2019-03-19T07:50:13.578Z,100.00
2019-03-19T07:52:42.068Z,100.00
2019-03-19T07:55:10.520Z,100.00
2019-03-19T07:57:38.972Z,100.00
2019-03-19T08:00:20.484Z,100.00
2019-03-19T08:02:48.918Z,100.00
2019-03-19T08:05:17.257Z,100.00
2019-03-19T08:07:45.807Z,100.00
2019-03-19T08:10:18.100Z,100.00
2019-03-19T08:12:46.621Z,100.00
2019-03-19T08:15:21.776Z,100.00
2019-03-19T08:17:50.163Z,100.00
2019-03-19T08:20:18.888Z,100.00
2019-03-19T08:22:47.341Z,100.00
2019-03-19T08:25:18.405Z,100.00
2019-03-19T08:27:46.799Z,100.00
2019-03-19T08:30:24.295Z,100.00
2019-03-19T08:32:52.071Z,100.00
2019-03-19T08:35:20.418Z,100.00
2019-03-19T08:37:48.865Z,100.00
2019-03-19T08:40:18.155Z,100.00
2019-03-19T08:42:46.603Z,100.00
2019-03-19T08:45:17.154Z,99.42
2019-03-19T08:47:45.594Z,100.00
2019-03-19T08:50:21.433Z,100.00
2019-03-19T08:52:49.819Z,97.03
2019-03-19T08:55:18.235Z,95.00
2019-03-19T08:57:46.688Z,92.75
2019-03-19T09:00:22.394Z,88.64
2019-03-19T09:02:50.834Z,86.20
2019-03-19T09:05:19.185Z,83.60
2019-03-19T09:07:47.542Z,81.65
2019-03-19T09:10:19.753Z,81.08
2019-03-19T09:12:48.906Z,82.82
2019-03-19T09:15:26.688Z,83.55
2019-03-19T09:17:55.097Z,81.10
2019-03-19T09:20:23.550Z,74.58
2019-03-19T09:22:51.955Z,75.95
2019-03-19T09:25:20.396Z,77.75
2019-03-19T09:27:48.739Z,79.19
2019-03-19T09:30:21.206Z,79.50
2019-03-19T09:32:49.605Z,76.77
2019-03-19T09:35:18.059Z,77.34
2019-03-19T09:37:57.907Z,74.74
2019-03-19T09:40:17.527Z,74.80
2019-03-19T09:42:45.938Z,73.32
2019-03-19T09:45:15.555Z,79.88
2019-03-19T09:47:43.967Z,75.58
2019-03-19T09:50:20.732Z,73.53
2019-03-19T09:52:49.084Z,75.53
2019-03-19T09:55:17.526Z,75.89
2019-03-19T09:57:45.944Z,72.90
2019-03-19T10:00:18.857Z,75.52
2019-03-19T10:02:47.266Z,66.20
2019-03-19T10:05:15.816Z,64.61
2019-03-19T10:07:44.289Z,61.97
2019-03-19T10:10:20.861Z,61.14
2019-03-19T10:12:49.299Z,61.56
2019-03-19T10:15:18.007Z,61.60
2019-03-19T10:17:46.424Z,61.31
2019-03-19T10:20:18.086Z,62.47
2019-03-19T10:22:46.977Z,61.62
2019-03-19T10:25:16.642Z,60.24
2019-03-19T10:27:45.121Z,61.64
2019-03-19T10:30:20.504Z,63.45
2019-03-19T10:32:49.068Z,64.75
2019-03-19T10:35:17.630Z,60.52
2019-03-19T10:37:46.426Z,62.85
2019-03-19T10:40:19.440Z,66.21
2019-03-19T10:42:47.914Z,65.45
2019-03-19T10:45:17.354Z,63.96
2019-03-19T10:47:45.792Z,62.90
2019-03-19T10:50:19.922Z,61.38
2019-03-19T10:52:48.440Z,65.24
2019-03-19T10:55:16.920Z,64.11
2019-03-19T10:57:45.534Z,64.41
2019-03-19T11:00:29.077Z,66.52
2019-03-19T11:02:57.512Z,61.61
2019-03-19T11:05:26.491Z,64.03
2019-03-19T11:07:55.128Z,60.97
2019-03-19T11:10:23.722Z,65.74
2019-03-19T11:12:52.163Z,65.01
2019-03-19T11:15:25.970Z,67.14
2019-03-19T11:17:54.482Z,64.00
2019-03-19T11:20:23.063Z,64.04
2019-03-19T11:22:51.583Z,65.75
2019-03-19T11:25:22.035Z,60.47
2019-03-19T11:27:50.379Z,57.93
2019-03-19T11:30:23.494Z,58.37
2019-03-19T11:32:51.900Z,61.40
2019-03-19T11:35:20.613Z,57.15
2019-03-19T11:37:49.486Z,57.41
2019-03-19T11:40:19.197Z,57.04
2019-03-19T11:42:48.518Z,57.53
2019-03-19T11:45:23.889Z,55.50
2019-03-19T11:47:52.385Z,56.83
2019-03-19T11:50:28.397Z,56.65
2019-03-19T11:52:56.738Z,58.21
2019-03-19T11:55:25.261Z,57.60
2019-03-19T11:57:53.753Z,54.73
2019-03-19T12:00:36.186Z,55.49
2019-03-19T12:03:14.753Z,55.90
2019-03-19T12:05:35.882Z,55.91
2019-03-19T12:08:04.593Z,55.20
2019-03-19T12:10:32.953Z,57.87
2019-03-19T12:13:01.297Z,56.30
2019-03-19T12:15:29.748Z,55.58
2019-03-19T12:17:58.154Z,58.22
2019-03-19T12:20:26.604Z,54.76
2019-03-19T12:22:55.003Z,54.56
2019-03-19T12:25:23.518Z,52.24
2019-03-19T12:27:51.932Z,52.35
2019-03-19T12:30:26.335Z,54.58
2019-03-19T12:32:54.360Z,54.98
2019-03-19T12:35:23.199Z,52.84
2019-03-19T12:37:51.614Z,53.60
2019-03-19T12:40:23.565Z,52.49
2019-03-19T12:42:52.037Z,51.53
2019-03-19T12:45:21.665Z,53.23
2019-03-19T12:47:50.150Z,54.44
2019-03-19T12:50:24.680Z,58.11
2019-03-19T12:52:53.094Z,58.53
2019-03-19T12:55:21.761Z,56.91
2019-03-19T12:57:50.116Z,51.74
2019-03-19T13:02:54.100Z,51.43
2019-03-19T13:05:22.788Z,50.67
2019-03-19T13:06:07.823Z,51.21
2019-03-19T13:07:51.259Z,51.70
2019-03-19T13:10:20.774Z,51.27
2019-03-19T13:12:49.117Z,54.76
2019-03-19T13:15:19.434Z,54.85
2019-03-19T13:17:48.226Z,56.97
2019-03-19T13:20:18.881Z,56.20
2019-03-19T13:22:47.305Z,55.45
2019-03-19T13:25:21.560Z,55.68
2019-03-19T13:27:50.076Z,55.88
2019-03-19T13:30:23.459Z,55.84
2019-03-19T13:32:51.839Z,54.95
2019-03-19T13:35:20.246Z,56.57
2019-03-19T13:37:48.695Z,56.80
2019-03-19T13:40:17.979Z,58.49
2019-03-19T13:42:46.523Z,55.57
2019-03-19T13:45:16.661Z,58.30
2019-03-19T13:47:45.039Z,56.47
2019-03-19T13:50:18.098Z,54.29
2019-03-19T13:52:46.553Z,53.65
2019-03-19T13:55:16.715Z,53.04
2019-03-19T13:57:45.165Z,54.39
2019-03-19T14:00:18.743Z,58.20
2019-03-19T14:02:47.286Z,57.14
2019-03-19T14:05:16.674Z,55.32
2019-03-19T14:07:45.115Z,55.32
2019-03-19T14:10:15.094Z,54.87
2019-03-19T14:12:43.544Z,55.10
2019-03-19T14:15:17.821Z,56.00
2019-03-19T14:17:46.220Z,56.66
2019-03-19T14:20:16.082Z,55.95
2019-03-19T14:22:45.419Z,54.49
2019-03-19T14:25:15.297Z,53.02
2019-03-19T14:27:44.374Z,52.23
2019-03-19T14:30:18.710Z,54.66
2019-03-19T14:32:47.156Z,53.66
2019-03-19T14:35:16.017Z,53.69
2019-03-19T14:37:44.484Z,49.54
2019-03-19T14:40:26.649Z,52.18
2019-03-19T14:42:55.029Z,54.16
2019-03-19T14:45:23.437Z,54.08
2019-03-19T14:47:51.876Z,54.64
2019-03-19T14:50:22.674Z,54.60
2019-03-19T14:52:51.124Z,54.09
2019-03-19T14:55:20.200Z,51.84
2019-03-19T14:57:50.761Z,50.24
2019-03-19T15:00:19.801Z,53.74
2019-03-19T15:02:48.320Z,51.54
2019-03-19T15:05:16.809Z,54.15
2019-03-19T15:07:45.225Z,51.28
2019-03-19T15:10:16.303Z,48.40
2019-03-19T15:12:44.714Z,46.92
2019-03-19T15:15:17.811Z,47.54
2019-03-19T15:17:46.229Z,45.49
2019-03-19T15:20:25.579Z,47.92
2019-03-19T15:22:55.340Z,44.95
2019-03-19T15:25:23.968Z,45.49
2019-03-19T15:27:52.625Z,45.60
2019-03-19T15:30:21.436Z,45.62
2019-03-19T15:32:50.037Z,48.99
2019-03-19T15:35:18.479Z,44.59
2019-03-19T15:37:46.962Z,47.44
2019-03-19T15:40:19.251Z,46.81
2019-03-19T15:42:47.865Z,44.72
2019-03-19T15:45:17.671Z,46.97
2019-03-19T15:47:46.090Z,45.56
2019-03-19T15:50:15.605Z,46.36
2019-03-19T15:52:44.020Z,44.85
2019-03-19T15:55:16.420Z,45.33
2019-03-19T15:57:44.899Z,43.50
2019-03-19T16:00:15.385Z,46.44
2019-03-19T16:02:43.872Z,44.75
2019-03-19T16:05:13.392Z,44.64
2019-03-19T16:07:41.847Z,48.84
2019-03-19T16:10:15.775Z,47.08
2019-03-19T16:12:44.252Z,44.88
2019-03-19T16:15:21.580Z,45.37
2019-03-19T16:17:49.995Z,46.71
2019-03-19T16:20:20.486Z,50.43
2019-03-19T16:22:48.917Z,50.24
2019-03-19T16:25:17.403Z,44.12
2019-03-19T16:27:45.864Z,44.97
2019-03-19T16:30:16.256Z,45.16
2019-03-19T16:32:44.609Z,46.94
2019-03-19T16:35:13.446Z,45.36
2019-03-19T16:37:41.940Z,45.65
2019-03-19T16:40:18.829Z,44.84
2019-03-19T16:42:47.391Z,44.21
2019-03-19T16:45:18.154Z,44.51
2019-03-19T16:47:46.025Z,44.86
2019-03-19T16:50:20.061Z,46.37
2019-03-19T16:52:48.682Z,46.11
2019-03-19T16:55:19.222Z,44.58
2019-03-19T16:57:47.598Z,44.19
2019-03-19T17:00:20.355Z,42.91
2019-03-19T17:02:48.732Z,42.42
2019-03-19T17:05:18.115Z,43.75
2019-03-19T17:07:46.484Z,43.96
2019-03-19T17:10:19.775Z,41.57
2019-03-19T17:12:48.181Z,42.73
2019-03-19T17:15:18.407Z,41.96
2019-03-19T17:17:46.842Z,42.18
2019-03-19T17:20:16.664Z,43.26
2019-03-19T17:22:45.110Z,42.93
2019-03-19T17:25:16.141Z,42.92
2019-03-19T17:27:44.519Z,43.30
2019-03-19T17:30:21.117Z,43.69
2019-03-19T17:32:49.557Z,43.45
2019-03-19T17:35:17.972Z,44.29
2019-03-19T17:37:46.725Z,43.41
2019-03-19T17:40:16.091Z,42.99
2019-03-19T17:42:46.133Z,43.24
2019-03-19T17:45:15.646Z,43.31
2019-03-19T17:47:44.017Z,43.74
2019-03-19T17:50:20.251Z,43.44
2019-03-19T17:52:51.579Z,44.81
2019-03-19T17:55:19.965Z,45.59
2019-03-19T17:57:48.524Z,46.43
2019-03-19T18:00:35.635Z,46.24
2019-03-19T18:03:04.088Z,46.27
2019-03-19T18:05:32.499Z,47.03
2019-03-19T18:08:00.878Z,47.78
2019-03-19T18:10:29.294Z,48.55
2019-03-19T18:12:57.662Z,48.13
2019-03-19T18:15:26.007Z,47.83
2019-03-19T18:17:54.380Z,47.84
2019-03-19T18:20:22.770Z,48.62
2019-03-19T18:22:51.099Z,48.86
2019-03-19T18:25:19.979Z,52.90
2019-03-19T18:27:48.366Z,58.24
2019-03-19T18:30:19.884Z,61.78
2019-03-19T18:32:48.261Z,61.84
2019-03-19T18:35:16.614Z,60.91
2019-03-19T18:37:45.064Z,56.98
2019-03-19T18:40:17.602Z,59.35
2019-03-19T18:42:46.046Z,66.11
2019-03-19T18:45:17.924Z,71.78
2019-03-19T18:47:46.366Z,65.37
2019-03-19T18:50:21.794Z,68.70
2019-03-19T18:52:50.162Z,73.48
2019-03-19T18:55:18.689Z,71.02
2019-03-19T18:57:47.133Z,67.99
2019-03-19T19:00:22.545Z,69.52
2019-03-19T19:02:51.332Z,71.06
2019-03-19T19:05:21.803Z,72.54
2019-03-19T19:07:50.164Z,68.77
2019-03-19T19:10:21.160Z,70.70
2019-03-19T19:12:48.850Z,71.03
2019-03-19T19:15:18.568Z,68.54
2019-03-19T19:17:47.641Z,69.56
2019-03-19T19:20:16.980Z,68.51
2019-03-19T19:22:45.308Z,68.07
2019-03-19T19:25:15.331Z,68.28
2019-03-19T19:27:45.451Z,68.43
2019-03-19T19:30:25.298Z,69.70
2019-03-19T19:33:01.414Z,69.99
2019-03-19T19:35:24.073Z,70.09
2019-03-19T19:37:52.620Z,70.07
2019-03-19T19:40:21.146Z,69.87
2019-03-19T19:42:49.499Z,71.12
2019-03-19T19:45:19.567Z,72.60
2019-03-19T19:47:49.539Z,71.34
2019-03-19T19:50:18.977Z,70.58
2019-03-19T19:52:47.659Z,70.00
2019-03-19T19:55:16.547Z,69.63
2019-03-19T19:57:45.089Z,74.93
2019-03-19T20:00:21.560Z,75.94
2019-03-19T20:02:50.854Z,73.40
2019-03-19T20:05:19.542Z,73.28
2019-03-19T20:07:52.505Z,73.57
2019-03-19T20:10:25.222Z,75.70
2019-03-19T20:12:53.636Z,75.30
2019-03-19T20:15:22.847Z,78.00
2019-03-19T20:17:51.499Z,78.42
2019-03-19T20:20:31.698Z,79.43
2019-03-19T20:23:00.173Z,77.96
2019-03-19T20:25:28.556Z,73.87
2019-03-19T20:27:57.132Z,71.83
2019-03-19T20:30:27.728Z,71.93
2019-03-19T20:32:56.548Z,74.09
2019-03-19T20:35:24.997Z,76.86
2019-03-19T20:37:53.353Z,80.07
2019-03-19T20:40:22.379Z,78.35
2019-03-19T20:42:52.014Z,75.33
2019-03-19T20:45:25.570Z,73.85
2019-03-19T20:47:53.908Z,73.60
2019-03-19T20:50:35.677Z,72.08
2019-03-19T20:53:04.229Z,70.59
2019-03-19T20:55:32.821Z,71.55
2019-03-19T20:58:01.480Z,71.53
2019-03-19T21:00:30.143Z,71.89
2019-03-19T21:02:58.602Z,71.78
2019-03-19T21:05:27.504Z,74.45
2019-03-19T21:07:57.080Z,73.83
2019-03-19T21:10:26.132Z,72.27
2019-03-19T21:12:54.970Z,72.56
2019-03-19T21:15:31.617Z,73.49
2019-03-19T21:18:01.331Z,72.43
2019-03-19T21:20:30.625Z,71.67
2019-03-19T21:23:01.174Z,71.36
2019-03-19T21:25:29.834Z,71.65
2019-03-19T21:27:59.352Z,71.07
2019-03-19T21:30:28.450Z,70.83
2019-03-19T21:32:57.364Z,70.22
2019-03-19T21:35:27.000Z,73.11
2019-03-19T21:37:57.216Z,73.02
2019-03-19T21:40:25.729Z,72.04
2019-03-19T21:42:57.312Z,73.23
2019-03-19T21:45:26.323Z,75.51
2019-03-19T21:47:55.279Z,75.19
2019-03-19T21:50:24.847Z,75.27
2019-03-19T21:52:55.772Z,74.97
2019-03-19T21:55:24.528Z,74.46
2019-03-19T21:57:52.900Z,74.91
2019-03-19T22:00:29.188Z,75.97
2019-03-19T22:02:57.636Z,77.91
2019-03-19T22:05:26.057Z,77.90
2019-03-19T22:07:54.652Z,79.11
2019-03-19T22:10:24.004Z,79.85
2019-03-19T22:12:52.466Z,80.00
2019-03-19T22:15:24.869Z,81.75
2019-03-19T22:17:53.311Z,81.31
2019-03-19T22:20:21.726Z,82.77
2019-03-19T22:22:50.180Z,81.45
2019-03-19T22:25:18.592Z,80.73
2019-03-19T22:27:47.044Z,79.37
2019-03-19T22:30:22.144Z,82.99
2019-03-19T22:32:50.604Z,81.39
2019-03-19T22:35:19.003Z,78.66
2019-03-19T22:37:48.245Z,77.50
2019-03-19T22:40:17.436Z,79.01
2019-03-19T22:42:46.088Z,78.90
2019-03-19T22:45:16.059Z,77.94
2019-03-19T22:47:44.409Z,78.07
2019-03-19T22:50:14.893Z,77.20
2019-03-19T22:52:43.471Z,78.18
2019-03-19T22:55:13.088Z,78.00
2019-03-19T22:57:41.498Z,77.33
2019-03-19T23:00:20.441Z,77.18
2019-03-19T23:02:48.782Z,76.89
2019-03-19T23:05:17.225Z,78.80
2019-03-19T23:07:45.633Z,81.00
2019-03-19T23:10:14.072Z,77.91
2019-03-19T23:12:42.551Z,77.58
2019-03-19T23:15:12.155Z,77.92
2019-03-19T23:17:40.639Z,77.26
2019-03-19T23:20:15.359Z,77.33
2019-03-19T23:22:43.757Z,77.41
2019-03-19T23:25:12.483Z,77.54
2019-03-19T23:27:40.911Z,77.18
2019-03-19T23:30:18.563Z,77.67
2019-03-19T23:32:46.974Z,77.61
2019-03-19T23:35:15.419Z,77.80
2019-03-19T23:37:43.765Z,78.66
2019-03-19T23:40:13.885Z,77.66
2019-03-19T23:42:42.298Z,77.84
2019-03-19T23:45:11.808Z,77.89
2019-03-19T23:47:40.222Z,77.51
2019-03-19T23:50:11.713Z,77.62
2019-03-19T23:52:40.116Z,78.41
2019-03-19T23:55:09.432Z,78.73
2019-03-19T23:57:37.847Z,78.61
